createdAt,value
2022-09-24T00:01:46.972Z,10.60
2022-09-24T00:04:13.933Z,10.60
2022-09-24T00:06:46.612Z,10.60
2022-09-24T00:09:19.150Z,10.60
2022-09-24T00:11:45.993Z,10.60
2022-09-24T00:14:13.326Z,10.50
2022-09-24T00:16:40.880Z,10.50
2022-09-24T00:19:08.256Z,10.40
2022-09-24T00:21:37.062Z,10.40
2022-09-24T00:24:07.118Z,10.40
2022-09-24T00:26:49.419Z,10.30
2022-09-24T00:29:22.539Z,10.30
2022-09-24T00:31:50.803Z,10.20
2022-09-24T00:34:18.442Z,10.20
2022-09-24T00:36:46.840Z,10.20
2022-09-24T00:39:16.973Z,10.10
2022-09-24T00:41:49.096Z,10.10
2022-09-24T00:44:36.370Z,10.10
2022-09-24T00:47:03.274Z,10.00
2022-09-24T00:49:30.083Z,10.00
2022-09-24T00:51:57.065Z,10.00
2022-09-24T00:54:28.776Z,10.00
2022-09-24T00:56:58.956Z,10.00
2022-09-24T00:59:27.246Z,10.00
2022-09-24T01:01:59.163Z,10.00
2022-09-24T01:04:28.040Z,10.00
2022-09-24T01:06:56.379Z,10.00
2022-09-24T01:09:27.559Z,10.00
2022-09-24T01:12:12.030Z,10.00
2022-09-24T01:14:57.609Z,10.10
2022-09-24T01:18:02.999Z,10.10
2022-09-24T01:20:46.907Z,10.20
2022-09-24T01:23:38.215Z,10.20
2022-09-24T01:26:45.485Z,10.20
2022-09-24T01:29:32.152Z,10.30
2022-09-24T01:32:07.560Z,10.30
2022-09-24T01:34:47.822Z,10.40
2022-09-24T01:37:18.731Z,10.40
2022-09-24T01:39:47.636Z,10.50
2022-09-24T01:42:15.211Z,10.60
2022-09-24T01:44:44.549Z,10.60
2022-09-24T01:47:34.417Z,10.60
2022-09-24T01:50:03.221Z,10.70
2022-09-24T01:52:35.550Z,10.80
2022-09-24T01:55:05.900Z,10.80
2022-09-24T01:57:54.875Z,10.90
2022-09-24T02:00:24.691Z,10.90
2022-09-24T02:03:15.904Z,10.90
2022-09-24T02:06:05.601Z,11.00
2022-09-24T02:08:37.567Z,11.00
2022-09-24T02:11:14.049Z,11.00
2022-09-24T02:14:07.806Z,11.10
2022-09-24T02:16:46.432Z,11.10
2022-09-24T02:19:24.034Z,11.10
2022-09-24T02:21:56.587Z,11.10
2022-09-24T02:24:32.229Z,11.20
2022-09-24T02:26:59.544Z,11.20
2022-09-24T02:29:26.597Z,11.20
2022-09-24T02:31:57.105Z,11.20
2022-09-24T02:34:36.700Z,11.20
2022-09-24T02:37:14.016Z,11.30
2022-09-24T02:39:42.088Z,11.30
2022-09-24T02:42:12.244Z,11.30
2022-09-24T02:44:39.222Z,11.30
2022-09-24T02:47:08.371Z,11.30
2022-09-24T02:49:35.329Z,11.30
2022-09-24T02:52:04.767Z,11.30
2022-09-24T02:54:31.846Z,11.30
2022-09-24T02:56:58.713Z,11.30
2022-09-24T02:59:27.985Z,11.30
2022-09-24T03:01:54.941Z,11.30
2022-09-24T03:04:21.902Z,11.30
2022-09-24T03:06:48.693Z,11.30
2022-09-24T03:09:15.632Z,11.30
2022-09-24T03:11:44.986Z,11.30
2022-09-24T03:14:11.815Z,11.20
2022-09-24T03:16:38.675Z,11.30
2022-09-24T03:19:07.224Z,11.30
2022-09-24T03:21:34.064Z,11.20
2022-09-24T03:24:01.037Z,11.20
2022-09-24T03:26:28.260Z,11.20
2022-09-24T03:28:55.080Z,11.20
2022-09-24T03:31:24.407Z,11.20
2022-09-24T03:33:51.812Z,11.10
2022-09-24T03:36:26.030Z,11.10
2022-09-24T03:38:56.885Z,11.10
2022-09-24T03:41:25.359Z,11.10
2022-09-24T03:43:52.303Z,11.10
2022-09-24T03:46:19.419Z,11.10
2022-09-24T03:48:47.394Z,11.10
2022-09-24T03:51:20.592Z,11.10
2022-09-24T03:53:48.390Z,11.00
2022-09-24T03:56:15.975Z,11.00
2022-09-24T03:58:48.212Z,11.00
2022-09-24T04:01:21.244Z,11.00
2022-09-24T04:03:50.978Z,11.00
2022-09-24T04:06:25.458Z,11.00
2022-09-24T04:08:53.380Z,11.00
2022-09-24T04:11:20.285Z,11.00
2022-09-24T04:13:47.191Z,11.00
2022-09-24T04:16:16.138Z,11.10
2022-09-24T04:18:43.017Z,11.10
2022-09-24T04:21:10.203Z,11.00
2022-09-24T04:23:39.383Z,11.10
2022-09-24T04:26:06.110Z,11.10
2022-09-24T04:28:35.426Z,11.10
2022-09-24T04:31:02.333Z,11.10
2022-09-24T04:33:29.124Z,11.10
2022-09-24T04:35:56.023Z,11.10
2022-09-24T04:38:23.144Z,11.10
2022-09-24T04:40:50.233Z,11.10
2022-09-24T04:43:19.081Z,11.00
2022-09-24T04:45:46.642Z,11.00
2022-09-24T04:48:13.868Z,11.00
2022-09-24T04:50:45.554Z,11.00
2022-09-24T04:53:13.458Z,11.00
2022-09-24T04:55:41.578Z,11.00
2022-09-24T04:58:11.067Z,11.00
2022-09-24T05:00:38.395Z,11.00
2022-09-24T05:03:05.403Z,11.00
2022-09-24T05:05:33.513Z,11.00
2022-09-24T05:08:01.576Z,11.00
2022-09-24T05:10:31.311Z,11.00
2022-09-24T05:12:58.007Z,11.00
2022-09-24T05:15:29.330Z,11.00
2022-09-24T05:17:56.188Z,11.00
2022-09-24T05:20:25.082Z,11.00
2022-09-24T05:22:51.902Z,11.00
2022-09-24T05:25:20.704Z,11.10
2022-09-24T05:27:49.222Z,11.10
2022-09-24T05:30:16.904Z,11.10
2022-09-24T05:32:46.335Z,11.20
2022-09-24T05:35:15.573Z,11.20
2022-09-24T05:37:49.084Z,11.20
2022-09-24T05:40:34.679Z,11.30
2022-09-24T05:43:02.089Z,11.30
2022-09-24T05:45:29.804Z,11.40
2022-09-24T05:47:56.621Z,11.40
2022-09-24T05:50:25.718Z,11.50
2022-09-24T05:52:52.512Z,11.60
2022-09-24T05:55:21.879Z,11.70
2022-09-24T05:57:50.794Z,11.80
2022-09-24T06:00:17.814Z,11.80
2022-09-24T06:02:44.741Z,11.90
2022-09-24T06:05:14.803Z,12.00
2022-09-24T06:07:41.628Z,12.00
2022-09-24T06:10:11.310Z,12.10
2022-09-24T06:12:38.112Z,12.00
2022-09-24T06:15:05.290Z,12.10
2022-09-24T06:17:32.460Z,12.10
2022-09-24T06:19:59.315Z,12.10
2022-09-24T06:22:28.639Z,12.00
2022-09-24T06:24:57.867Z,12.00
2022-09-24T06:27:24.786Z,12.00
2022-09-24T06:29:51.602Z,12.10
2022-09-24T06:32:19.828Z,12.10
2022-09-24T06:34:47.246Z,12.20
2022-09-24T06:37:14.117Z,12.40
2022-09-24T06:39:40.897Z,12.40
2022-09-24T06:42:07.747Z,12.60
2022-09-24T06:44:35.695Z,12.70
2022-09-24T06:47:02.508Z,12.80
2022-09-24T06:49:33.735Z,13.00
2022-09-24T06:52:01.409Z,13.10
2022-09-24T06:54:30.579Z,13.30
2022-09-24T06:56:59.947Z,13.30
2022-09-24T06:59:29.487Z,13.50
2022-09-24T07:01:56.407Z,13.60
2022-09-24T07:04:23.147Z,13.60
2022-09-24T07:07:08.325Z,13.60
2022-09-24T07:09:36.310Z,13.70
2022-09-24T07:12:05.420Z,13.60
2022-09-24T07:14:32.218Z,13.60
2022-09-24T07:16:59.125Z,13.50
2022-09-24T07:19:27.933Z,13.60
2022-09-24T07:21:54.799Z,13.60
2022-09-24T07:24:21.562Z,13.70
2022-09-24T07:26:50.561Z,13.70
2022-09-24T07:29:19.981Z,13.80
2022-09-24T07:31:46.836Z,13.90
2022-09-24T07:34:16.248Z,13.90
2022-09-24T07:36:43.192Z,14.00
2022-09-24T07:39:12.991Z,14.20
2022-09-24T07:41:42.289Z,14.20
2022-09-24T07:44:09.952Z,14.30
2022-09-24T07:46:36.833Z,14.30
2022-09-24T07:49:06.081Z,14.30
2022-09-24T07:51:32.910Z,14.30
2022-09-24T07:53:59.683Z,14.30
2022-09-24T07:56:32.305Z,14.30
2022-09-24T07:58:59.280Z,14.30
2022-09-24T08:01:28.323Z,14.40
2022-09-24T08:03:55.294Z,14.30
2022-09-24T08:06:23.227Z,14.40
2022-09-24T08:08:50.928Z,14.50
2022-09-24T08:11:20.446Z,14.50
2022-09-24T08:13:47.379Z,14.50
2022-09-24T08:16:16.469Z,14.60
2022-09-24T08:18:43.982Z,14.60
2022-09-24T08:21:11.995Z,14.80
2022-09-24T08:23:40.155Z,14.90
2022-09-24T08:26:07.985Z,15.00
2022-09-24T08:28:37.645Z,15.10
2022-09-24T08:31:09.923Z,15.10
2022-09-24T08:33:40.265Z,15.10
2022-09-24T08:36:10.341Z,15.20
2022-09-24T08:38:40.500Z,15.40
2022-09-24T08:41:13.110Z,15.50
2022-09-24T08:43:51.601Z,15.60
2022-09-24T08:46:57.464Z,15.60
2022-09-24T08:49:47.377Z,15.70
2022-09-24T08:52:36.478Z,15.80
2022-09-24T08:55:11.582Z,15.80
2022-09-24T08:58:07.093Z,16.00
2022-09-24T09:00:42.710Z,16.10
2022-09-24T09:03:29.712Z,16.20
2022-09-24T09:06:05.125Z,16.30
2022-09-24T09:09:07.149Z,16.30
2022-09-24T09:11:37.039Z,16.40
2022-09-24T09:14:06.412Z,16.40
2022-09-24T09:16:54.825Z,16.70
2022-09-24T09:19:27.091Z,16.90
2022-09-24T09:22:07.326Z,17.10
2022-09-24T09:24:48.990Z,17.50
2022-09-24T09:27:16.990Z,17.80
2022-09-24T09:29:48.741Z,17.80
2022-09-24T09:32:43.083Z,17.60
2022-09-24T09:35:27.827Z,17.70
2022-09-24T09:38:04.322Z,17.70
2022-09-24T09:40:34.472Z,17.60
2022-09-24T09:43:03.836Z,17.80
2022-09-24T09:45:39.235Z,17.90
2022-09-24T09:48:12.834Z,17.90
2022-09-24T09:50:44.946Z,17.90
2022-09-24T09:53:26.255Z,18.10
2022-09-24T09:55:58.257Z,18.10
2022-09-24T09:58:31.385Z,18.30
2022-09-24T10:01:13.804Z,18.20
2022-09-24T10:03:49.090Z,18.20
2022-09-24T10:06:32.365Z,18.20
2022-09-24T10:09:21.733Z,18.20
2022-09-24T10:11:48.891Z,18.30
2022-09-24T10:14:18.939Z,18.30
2022-09-24T10:16:50.817Z,18.30
2022-09-24T10:19:22.967Z,18.30
2022-09-24T10:21:54.440Z,18.40
2022-09-24T10:24:24.189Z,18.40
2022-09-24T10:26:51.912Z,18.50
2022-09-24T10:29:48.684Z,18.60
2022-09-24T10:32:20.774Z,18.60
2022-09-24T10:35:03.507Z,18.60
2022-09-24T10:37:30.478Z,18.60
2022-09-24T10:40:01.973Z,18.60
2022-09-24T10:42:31.165Z,18.70
2022-09-24T10:45:04.583Z,18.70
2022-09-24T10:47:52.395Z,18.70
2022-09-24T10:50:54.309Z,18.60
2022-09-24T10:53:58.618Z,18.60
2022-09-24T10:56:46.141Z,18.50
2022-09-24T10:59:35.244Z,18.60
2022-09-24T11:02:14.035Z,18.60
2022-09-24T11:05:15.513Z,18.70
2022-09-24T11:07:52.924Z,18.90
2022-09-24T11:10:42.724Z,19.00
2022-09-24T11:13:31.592Z,19.20
2022-09-24T11:16:38.929Z,19.50
2022-09-24T11:19:14.678Z,19.80
2022-09-24T11:22:20.415Z,19.90
2022-09-24T11:25:20.055Z,20.40
2022-09-24T11:28:21.393Z,20.50
2022-09-24T11:31:04.949Z,20.70
2022-09-24T11:33:50.642Z,20.90
2022-09-24T11:36:43.476Z,21.20
2022-09-24T11:39:10.545Z,21.20
2022-09-24T11:42:04.730Z,21.30
2022-09-24T11:45:00.255Z,21.40
2022-09-24T11:47:39.502Z,21.50
2022-09-24T11:50:15.827Z,21.60
2022-09-24T11:52:53.369Z,21.60
2022-09-24T11:55:44.230Z,21.50
2022-09-24T11:58:18.557Z,21.40
2022-09-24T12:00:56.856Z,21.40
2022-09-24T12:03:45.518Z,21.40
2022-09-24T12:06:20.169Z,21.30
2022-09-24T12:09:03.619Z,21.00
2022-09-24T12:12:10.996Z,20.70
2022-09-24T12:14:49.755Z,20.50
2022-09-24T12:17:24.157Z,20.20
2022-09-24T12:20:00.387Z,20.00
2022-09-24T12:22:31.834Z,19.90
2022-09-24T12:25:00.739Z,19.60
2022-09-24T12:27:28.300Z,19.50
2022-09-24T12:30:34.909Z,19.30
2022-09-24T12:33:09.181Z,19.30
2022-09-24T12:36:02.170Z,19.20
2022-09-24T12:38:50.783Z,19.20
2022-09-24T12:41:32.533Z,19.40
2022-09-24T12:44:11.439Z,19.70
2022-09-24T12:46:58.247Z,20.30
2022-09-24T12:49:25.284Z,20.70
2022-09-24T12:51:53.911Z,20.90
2022-09-24T12:54:34.916Z,21.00
2022-09-24T12:57:25.023Z,21.20
2022-09-24T12:59:57.677Z,21.20
2022-09-24T13:02:28.119Z,21.40
2022-09-24T13:05:31.129Z,21.70
2022-09-24T13:08:00.139Z,21.50
2022-09-24T13:10:37.944Z,21.30
2022-09-24T13:13:22.840Z,21.20
2022-09-24T13:16:01.963Z,21.10
2022-09-24T13:18:29.767Z,21.00
2022-09-24T13:21:01.235Z,20.70
2022-09-24T13:23:29.473Z,20.90
2022-09-24T13:25:59.165Z,21.20
2022-09-24T13:28:37.935Z,22.00
2022-09-24T13:31:24.184Z,22.30
2022-09-24T13:34:17.634Z,22.50
2022-09-24T13:36:48.938Z,22.20
2022-09-24T13:39:28.656Z,21.90
2022-09-24T13:42:23.202Z,21.70
2022-09-24T13:45:00.356Z,21.50
2022-09-24T13:47:39.093Z,21.20
2022-09-24T13:50:27.143Z,21.00
2022-09-24T13:53:06.542Z,20.90
2022-09-24T13:55:45.117Z,20.70
2022-09-24T13:58:31.497Z,20.40
2022-09-24T14:01:01.739Z,20.30
2022-09-24T14:03:38.963Z,20.30
2022-09-24T14:06:17.015Z,20.20
2022-09-24T14:08:46.856Z,20.20
2022-09-24T14:11:24.679Z,20.20
2022-09-24T14:13:52.232Z,20.20
2022-09-24T14:16:24.438Z,20.10
2022-09-24T14:19:05.566Z,20.00
2022-09-24T14:21:40.272Z,19.80
2022-09-24T14:24:24.845Z,19.70
2022-09-24T14:27:04.418Z,19.70
2022-09-24T14:29:48.631Z,19.80
2022-09-24T14:32:30.407Z,19.90
2022-09-24T14:35:18.386Z,20.00
2022-09-24T14:38:01.704Z,19.90
2022-09-24T14:40:29.049Z,19.70
2022-09-24T14:42:59.571Z,19.50
2022-09-24T14:45:36.274Z,19.40
2022-09-24T14:48:31.644Z,19.20
2022-09-24T14:51:01.939Z,19.00
2022-09-24T14:53:36.072Z,18.80
2022-09-24T14:56:20.457Z,18.60
2022-09-24T14:58:47.545Z,18.40
2022-09-24T15:01:20.112Z,18.20
2022-09-24T15:04:16.310Z,18.10
2022-09-24T15:06:47.243Z,18.00
2022-09-24T15:09:30.534Z,17.80
2022-09-24T15:12:08.966Z,17.70
2022-09-24T15:14:36.796Z,17.60
2022-09-24T15:17:27.029Z,17.50
2022-09-24T15:19:57.980Z,17.40
2022-09-24T15:22:29.429Z,17.20
2022-09-24T15:25:01.478Z,17.10
2022-09-24T15:27:33.935Z,17.10
2022-09-24T15:30:02.106Z,17.00
2022-09-24T15:32:31.369Z,17.00
2022-09-24T15:34:58.433Z,16.90
2022-09-24T15:37:27.988Z,16.90
2022-09-24T15:39:59.287Z,16.90
2022-09-24T15:42:31.548Z,17.00
2022-09-24T15:44:58.510Z,16.90
2022-09-24T15:47:25.373Z,16.90
2022-09-24T15:49:52.274Z,16.80
2022-09-24T15:52:26.418Z,16.80
2022-09-24T15:54:55.553Z,16.80
2022-09-24T15:57:26.514Z,16.70
2022-09-24T15:59:53.921Z,16.60
2022-09-24T16:02:30.241Z,16.50
2022-09-24T16:05:01.441Z,16.40
2022-09-24T16:07:32.996Z,16.30
2022-09-24T16:10:02.016Z,16.30
2022-09-24T16:12:31.360Z,16.20
2022-09-24T16:15:00.514Z,16.10
2022-09-24T16:17:28.448Z,16.10
2022-09-24T16:19:55.203Z,15.90
2022-09-24T16:22:22.094Z,15.90
2022-09-24T16:24:48.992Z,15.90
2022-09-24T16:27:16.509Z,15.80
2022-09-24T16:29:45.523Z,15.70
2022-09-24T16:32:13.845Z,15.60
2022-09-24T16:34:41.100Z,15.60
2022-09-24T16:37:08.591Z,15.50
2022-09-24T16:39:35.530Z,15.40
2022-09-24T16:42:04.973Z,15.40
2022-09-24T16:44:31.744Z,15.30
2022-09-24T16:47:00.954Z,15.10
2022-09-24T16:49:28.007Z,15.10
2022-09-24T16:51:55.891Z,15.00
2022-09-24T16:54:23.089Z,14.90
2022-09-24T16:56:53.052Z,14.80
2022-09-24T16:59:22.279Z,14.70
2022-09-24T17:01:49.318Z,14.60
2022-09-24T17:04:16.160Z,14.60
2022-09-24T17:06:50.160Z,14.50
2022-09-24T17:09:35.582Z,14.50
2022-09-24T17:12:05.430Z,14.50
2022-09-24T17:14:37.165Z,14.50
2022-09-24T17:17:05.005Z,14.50
2022-09-24T17:19:32.248Z,14.50
2022-09-24T17:21:59.056Z,14.50
2022-09-24T17:24:28.054Z,14.50
2022-09-24T17:26:55.135Z,14.50
2022-09-24T17:29:30.451Z,14.40
2022-09-24T17:32:01.533Z,14.40
2022-09-24T17:34:28.427Z,14.40
2022-09-24T17:36:55.317Z,14.40
2022-09-24T17:39:22.277Z,14.40
2022-09-24T17:41:51.594Z,14.40
2022-09-24T17:44:18.519Z,14.30
2022-09-24T17:46:45.498Z,14.30
2022-09-24T17:49:15.597Z,14.30
2022-09-24T17:51:49.475Z,14.40
2022-09-24T17:54:21.404Z,14.30
2022-09-24T17:56:48.194Z,14.30
2022-09-24T17:59:15.594Z,14.30
2022-09-24T18:01:46.048Z,14.30
2022-09-24T18:04:17.633Z,14.30
2022-09-24T18:06:46.014Z,14.30
2022-09-24T18:09:14.647Z,14.30
2022-09-24T18:11:47.346Z,14.30
2022-09-24T18:14:24.215Z,14.30
2022-09-24T18:16:51.423Z,14.30
2022-09-24T18:19:18.749Z,14.30
2022-09-24T18:21:46.595Z,14.30
2022-09-24T18:24:16.655Z,14.30
2022-09-24T18:26:51.337Z,14.20
2022-09-24T18:29:19.409Z,14.20
2022-09-24T18:31:49.289Z,14.10
2022-09-24T18:34:18.699Z,14.10
2022-09-24T18:36:45.669Z,14.10
2022-09-24T18:39:21.685Z,14.00
2022-09-24T18:41:51.886Z,14.00
2022-09-24T18:44:19.679Z,14.00
2022-09-24T18:46:47.024Z,13.90
2022-09-24T18:49:13.876Z,13.90
2022-09-24T18:51:40.830Z,13.90
2022-09-24T18:54:12.592Z,13.90
2022-09-24T18:56:39.797Z,13.90
2022-09-24T18:59:11.973Z,13.90
2022-09-24T19:01:39.981Z,13.90
2022-09-24T19:04:10.716Z,13.90
2022-09-24T19:06:40.645Z,13.90
2022-09-24T19:09:11.966Z,13.90
2022-09-24T19:11:40.512Z,13.90
2022-09-24T19:14:07.600Z,13.90
2022-09-24T19:16:34.446Z,13.90
2022-09-24T19:19:01.875Z,13.90
2022-09-24T19:21:28.871Z,13.90
2022-09-24T19:23:58.356Z,13.90
2022-09-24T19:26:28.249Z,13.90
2022-09-24T19:28:58.424Z,13.90
2022-09-24T19:31:31.461Z,13.90
2022-09-24T19:34:00.626Z,13.80
2022-09-24T19:36:27.351Z,13.80
2022-09-24T19:38:54.769Z,13.80
2022-09-24T19:41:26.492Z,13.80
2022-09-24T19:43:55.601Z,13.80
2022-09-24T19:46:26.927Z,13.70
2022-09-24T19:48:55.881Z,13.70
2022-09-24T19:51:25.620Z,13.70
2022-09-24T19:54:01.171Z,13.70
2022-09-24T19:56:31.874Z,13.70
2022-09-24T19:59:00.985Z,13.70
2022-09-24T20:01:30.425Z,13.70
2022-09-24T20:03:59.034Z,13.60
2022-09-24T20:06:31.286Z,13.60
2022-09-24T20:08:59.454Z,13.60
2022-09-24T20:11:27.339Z,13.50
2022-09-24T20:13:56.266Z,13.50
2022-09-24T20:16:27.226Z,13.50
2022-09-24T20:18:59.338Z,13.50
2022-09-24T20:21:32.469Z,13.50
2022-09-24T20:24:01.168Z,13.40
2022-09-24T20:26:46.837Z,13.40
2022-09-24T20:29:14.580Z,13.40
2022-09-24T20:31:45.606Z,13.30
2022-09-24T20:34:12.723Z,13.30
2022-09-24T20:36:42.808Z,13.30
2022-09-24T20:39:09.636Z,13.30
2022-09-24T20:41:36.436Z,13.30
2022-09-24T20:44:05.513Z,13.30
2022-09-24T20:46:32.432Z,13.30
2022-09-24T20:49:00.279Z,13.30
2022-09-24T20:51:29.203Z,13.30
2022-09-24T20:53:58.195Z,13.30
2022-09-24T20:56:27.794Z,13.30
2022-09-24T20:58:54.638Z,13.30
2022-09-24T21:01:22.430Z,13.30
2022-09-24T21:03:50.162Z,13.30
2022-09-24T21:06:19.335Z,13.30
2022-09-24T21:08:46.666Z,13.30
2022-09-24T21:11:19.071Z,13.30
2022-09-24T21:13:51.462Z,13.30
2022-09-24T21:16:20.782Z,13.30
2022-09-24T21:18:48.919Z,13.30
2022-09-24T21:21:18.606Z,13.30
2022-09-24T21:23:47.679Z,13.30
2022-09-24T21:26:19.657Z,13.30
2022-09-24T21:28:48.303Z,13.30
2022-09-24T21:31:17.412Z,13.30
2022-09-24T21:33:55.166Z,13.30
2022-09-24T21:36:24.323Z,13.30
2022-09-24T21:39:16.405Z,13.30
2022-09-24T21:41:50.229Z,13.30
2022-09-24T21:44:18.232Z,13.30
2022-09-24T21:46:48.802Z,13.30
2022-09-24T21:49:17.148Z,13.30
2022-09-24T21:51:44.554Z,13.30
2022-09-24T21:54:15.426Z,13.20
2022-09-24T21:56:45.221Z,13.20
2022-09-24T21:59:31.043Z,13.20
2022-09-24T22:01:58.172Z,13.20
2022-09-24T22:04:25.177Z,13.10
2022-09-24T22:06:52.565Z,13.10
2022-09-24T22:09:20.393Z,13.10
2022-09-24T22:11:47.422Z,13.10
2022-09-24T22:14:14.741Z,13.10
2022-09-24T22:16:41.849Z,13.10
2022-09-24T22:19:09.434Z,13.10
2022-09-24T22:21:41.352Z,13.10
2022-09-24T22:24:08.362Z,13.10
2022-09-24T22:26:35.278Z,13.10
2022-09-24T22:29:03.880Z,13.10
2022-09-24T22:31:33.393Z,13.10
2022-09-24T22:34:19.709Z,13.10
2022-09-24T22:36:49.021Z,13.10
2022-09-24T22:39:15.806Z,13.10
2022-09-24T22:41:43.333Z,13.10
2022-09-24T22:44:12.003Z,13.10
2022-09-24T22:46:39.493Z,13.10
2022-09-24T22:49:06.768Z,13.10
2022-09-24T22:51:34.017Z,13.10
2022-09-24T22:54:03.364Z,13.10
2022-09-24T22:56:30.493Z,13.10
2022-09-24T22:58:59.606Z,13.10
2022-09-24T23:01:34.220Z,13.10
2022-09-24T23:04:01.636Z,13.10
2022-09-24T23:06:30.290Z,13.10
2022-09-24T23:08:57.271Z,13.10
2022-09-24T23:11:29.872Z,13.10
2022-09-24T23:14:07.420Z,13.10
2022-09-24T23:16:37.069Z,13.10
2022-09-24T23:19:12.402Z,13.10
2022-09-24T23:21:39.308Z,13.10
2022-09-24T23:24:16.892Z,13.10
2022-09-24T23:26:47.507Z,13.10
2022-09-24T23:29:16.975Z,13.10
2022-09-24T23:31:46.335Z,13.10
2022-09-24T23:34:18.057Z,13.10
2022-09-24T23:36:47.277Z,13.10
2022-09-24T23:39:14.337Z,13.10
2022-09-24T23:41:43.197Z,13.10
2022-09-24T23:44:10.399Z,13.10
2022-09-24T23:46:37.506Z,13.10
2022-09-24T23:49:04.575Z,13.20
2022-09-24T23:51:31.641Z,13.20
2022-09-24T23:54:00.584Z,13.20
2022-09-24T23:56:28.433Z,13.20
2022-09-24T23:58:57.744Z,13.20
